Time;durP1;ratioP1;P1;durP2;ratioP2;P2;SDS_P1;SDS_P2;PMS_P1;PMS_P2;Temp;Humidity;BMP_temperature;BMP_pressure;BME280_temperature;BME280_humidity;BME280_pressure;Samples;Min_cycle;Max_cycle;Signal;HPM_P1;HPM_P2
2023/01/15 00:03:36;;;;;;;0.50;0.30;;;11.80;99.90;;;;;;10157959;28;20033;-71
2023/01/15 00:08:26;;;;;;;0.95;0.50;;;11.90;99.90;;;;;;10152126;28;20140;-70
2023/01/15 00:13:17;;;;;;;1.02;0.75;;;11.90;99.90;;;;;;10162024;28;20309;-71
2023/01/15 00:18:13;;;;;;;0.22;0.22;;;12.00;99.90;;;;;;10171877;28;20036;-71
2023/01/15 00:23:04;;;;;;;0.30;0.30;;;12.00;99.90;;;;;;10163427;28;20054;-71
2023/01/15 00:27:55;;;;;;;0.65;0.38;;;12.10;99.90;;;;;;10181082;28;20544;-66
2023/01/15 00:32:46;;;;;;;0.93;0.82;;;12.10;99.90;;;;;;10183220;28;20052;-68
2023/01/15 00:37:36;;;;;;;0.52;0.40;;;12.10;99.90;;;;;;10180383;28;20031;-73
2023/01/15 00:42:27;;;;;;;1.45;0.68;;;12.10;99.90;;;;;;10178197;28;20234;-68
2023/01/15 00:47:18;;;;;;;0.55;0.30;;;12.10;99.90;;;;;;10180057;28;20475;-70
2023/01/15 00:52:09;;;;;;;0.35;0.32;;;12.10;99.90;;;;;;10176302;28;20020;-69
2023/01/15 00:57:00;;;;;;;1.20;0.30;;;12.10;99.90;;;;;;10182978;28;20027;-71
2023/01/15 01:01:51;;;;;;;0.50;0.20;;;12.00;99.90;;;;;;10166860;28;20070;-68
2023/01/15 01:06:41;;;;;;;1.77;0.30;;;12.00;99.90;;;;;;10131617;28;20029;-67
2023/01/15 01:11:33;;;;;;;0.47;0.30;;;12.00;99.90;;;;;;10173966;28;20411;-66
2023/01/15 01:16:32;;;;;;;0.43;0.25;;;12.00;99.90;;;;;;10168676;28;20454;-66
2023/01/15 01:21:23;;;;;;;0.55;0.30;;;12.10;99.90;;;;;;10166336;28;20047;-68
2023/01/15 01:26:14;;;;;;;0.75;0.40;;;12.10;99.90;;;;;;10175536;28;20024;-67
2023/01/15 01:31:06;;;;;;;0.40;0.30;;;12.10;99.90;;;;;;10169973;28;20244;-65
2023/01/15 01:35:56;;;;;;;0.10;0.10;;;12.00;99.90;;;;;;10164194;28;20024;-67
2023/01/15 01:40:47;;;;;;;1.55;0.25;;;12.10;99.90;;;;;;10166107;28;20062;-73
2023/01/15 01:45:38;;;;;;;0.60;0.30;;;12.10;99.90;;;;;;10135617;28;20457;-68
2023/01/15 01:50:31;;;;;;;0.30;0.30;;;12.10;99.90;;;;;;10154494;28;20023;-68
2023/01/15 01:55:23;;;;;;;0.57;0.20;;;12.10;99.90;;;;;;10169375;28;20025;-68
2023/01/15 02:00:14;;;;;;;0.65;0.28;;;12.10;99.90;;;;;;10165427;28;20428;-67
2023/01/15 02:05:07;;;;;;;0.20;0.13;;;12.10;99.90;;;;;;10159863;28;20149;-68
2023/01/15 02:09:58;;;;;;;0.80;0.20;;;12.10;99.90;;;;;;10153811;28;20021;-68
2023/01/15 02:15:04;;;;;;;0.40;0.20;;;12.10;99.90;;;;;;10160515;28;20033;-68
2023/01/15 02:20:28;;;;;;;2.08;0.40;;;12.10;99.90;;;;;;10166597;28;20075;-71
2023/01/15 02:25:26;;;;;;;0.43;0.20;;;12.10;99.90;;;;;;10181390;28;20208;-74
2023/01/15 02:30:28;;;;;;;1.23;0.65;;;12.10;99.90;;;;;;10181604;28;20464;-74
2023/01/15 02:35:22;;;;;;;0.40;0.22;;;12.10;99.90;;;;;;10191105;28;20036;-73
2023/01/15 02:40:14;;;;;;;0.40;0.20;;;12.10;99.90;;;;;;10191530;28;20038;-73
2023/01/15 02:45:07;;;;;;;1.35;0.30;;;12.10;99.90;;;;;;10197618;28;20031;-72
2023/01/15 02:50:03;;;;;;;1.42;0.25;;;12.20;99.90;;;;;;10190730;28;20059;-72
2023/01/15 02:55:06;;;;;;;2.20;0.38;;;12.30;99.90;;;;;;10186005;28;20035;-71
2023/01/15 03:00:00;;;;;;;0.95;0.28;;;12.40;99.90;;;;;;10191867;28;20131;-73
2023/01/15 03:05:12;;;;;;;1.00;0.60;;;12.40;99.90;;;;;;10189081;28;20036;-71
2023/01/15 03:10:04;;;;;;;0.52;0.40;;;12.50;99.90;;;;;;10185816;28;20028;-72
2023/01/15 03:16:33;;;;;;;1.10;0.50;;;12.50;99.90;;;;;;10189224;28;20019;-72
2023/01/15 03:20:33;;;;;;;0.88;0.52;;;12.50;99.90;;;;;;10191449;28;20024;-71
2023/01/15 03:25:28;;;;;;;0.77;0.50;;;12.50;99.90;;;;;;10186865;28;20036;-70
2023/01/15 03:30:20;;;;;;;0.93;0.37;;;12.40;99.90;;;;;;10182636;28;20100;-69
2023/01/15 03:35:49;;;;;;;1.52;0.20;;;12.50;99.90;;;;;;10170430;28;20054;-70
2023/01/15 03:41:06;;;;;;;1.10;0.20;;;12.50;99.90;;;;;;10170635;28;20456;-72
2023/01/15 03:46:01;;;;;;;1.45;0.38;;;12.60;99.90;;;;;;10188068;28;20545;-72
2023/01/15 03:51:01;;;;;;;0.20;0.20;;;12.60;99.90;;;;;;10188552;28;20391;-70
2023/01/15 03:56:04;;;;;;;0.30;0.10;;;12.50;99.90;;;;;;10178845;28;20027;-71
2023/01/15 04:00:58;;;;;;;0.10;0.00;;;12.40;99.90;;;;;;10171118;28;20393;-72
2023/01/15 04:05:51;;;;;;;0.55;0.20;;;11.00;99.90;;;;;;10172507;28;20048;-72
2023/01/15 04:10:56;;;;;;;0.13;0.10;;;10.10;99.90;;;;;;10171720;28;20103;-71
2023/01/15 04:15:47;;;;;;;1.25;0.13;;;9.70;99.90;;;;;;10175986;28;20081;-70
2023/01/15 04:20:37;;;;;;;0.10;0.10;;;9.50;99.90;;;;;;10170804;28;20072;-71
2023/01/15 04:25:28;;;;;;;0.00;0.00;;;9.30;99.90;;;;;;10180684;28;20254;-70
2023/01/15 04:30:19;;;;;;;0.00;0.00;;;9.20;99.90;;;;;;10178078;28;20497;-71
2023/01/15 04:35:09;;;;;;;0.00;0.00;;;9.00;99.90;;;;;;10179742;28;20028;-71
2023/01/15 04:40:00;;;;;;;0.15;0.00;;;9.00;99.90;;;;;;10181534;28;20030;-71
2023/01/15 04:44:50;;;;;;;0.03;0.03;;;9.00;99.90;;;;;;10182845;28;20056;-70
2023/01/15 04:49:41;;;;;;;0.00;0.00;;;9.00;99.90;;;;;;10186446;28;20024;-69
2023/01/15 04:54:32;;;;;;;1.35;0.00;;;9.00;99.90;;;;;;10182930;28;20047;-69
2023/01/15 04:59:25;;;;;;;0.00;0.00;;;9.10;99.90;;;;;;10168841;28;20034;-69
2023/01/15 05:04:16;;;;;;;0.00;0.00;;;9.10;99.90;;;;;;10181838;28;20032;-71
2023/01/15 05:09:07;;;;;;;0.10;0.10;;;9.10;99.90;;;;;;10160963;28;20024;-69
2023/01/15 05:13:57;;;;;;;0.00;0.00;;;9.20;99.90;;;;;;10169752;28;20085;-69
2023/01/15 05:18:48;;;;;;;0.00;0.00;;;9.30;99.90;;;;;;10180750;28;20080;-69
2023/01/15 05:23:39;;;;;;;0.08;0.00;;;9.20;99.90;;;;;;10153294;28;20040;-70
2023/01/15 05:28:29;;;;;;;0.00;0.00;;;9.00;99.90;;;;;;10177215;28;20027;-69
2023/01/15 05:33:20;;;;;;;0.10;0.05;;;9.10;99.90;;;;;;10183050;28;20354;-69
2023/01/15 05:38:11;;;;;;;0.00;0.00;;;8.90;99.90;;;;;;10182818;28;20217;-69
2023/01/15 05:43:02;;;;;;;0.00;0.00;;;8.70;99.90;;;;;;10178693;28;20456;-67
2023/01/15 05:47:53;;;;;;;0.10;0.00;;;8.70;99.90;;;;;;10186047;28;20024;-70
2023/01/15 05:52:44;;;;;;;0.20;0.00;;;8.80;99.90;;;;;;10167740;28;20021;-70
2023/01/15 05:57:34;;;;;;;0.05;0.00;;;8.70;99.90;;;;;;10164762;28;20066;-69
2023/01/15 06:02:25;;;;;;;0.25;0.03;;;8.70;99.90;;;;;;10161573;28;20031;-70
2023/01/15 06:07:18;;;;;;;0.15;0.00;;;8.60;99.90;;;;;;10157835;28;20103;-70
2023/01/15 06:12:09;;;;;;;0.38;0.00;;;8.60;99.90;;;;;;10156093;28;20135;-70
2023/01/15 06:16:59;;;;;;;0.00;0.00;;;8.60;99.90;;;;;;10155809;28;20087;-70
2023/01/15 06:21:50;;;;;;;0.08;0.03;;;8.50;99.90;;;;;;10156639;28;20605;-69
2023/01/15 06:26:41;;;;;;;0.30;0.13;;;8.50;99.90;;;;;;10179789;28;20357;-69
2023/01/15 06:31:31;;;;;;;0.05;0.05;;;8.50;99.90;;;;;;10183786;28;20406;-70
2023/01/15 06:36:24;;;;;;;0.10;0.10;;;8.50;99.90;;;;;;10170042;28;20024;-69
2023/01/15 06:51:36;;;;;;;0.77;0.15;;;8.30;99.90;;;;;;10178279;28;20137;-68
2023/01/15 06:56:26;;;;;;;0.13;0.10;;;8.30;99.90;;;;;;10169539;28;20075;-69
2023/01/15 07:01:17;;;;;;;0.63;0.10;;;8.40;99.90;;;;;;10173621;28;20087;-70
2023/01/15 07:06:09;;;;;;;0.38;0.30;;;8.40;99.90;;;;;;10182430;28;20047;-69
2023/01/15 07:11:04;;;;;;;0.40;0.22;;;8.40;99.90;;;;;;10188026;28;20020;-70
2023/01/15 07:15:57;;;;;;;0.10;0.10;;;8.30;99.90;;;;;;10187123;28;20085;-69
2023/01/15 07:20:48;;;;;;;0.88;0.13;;;8.40;99.90;;;;;;10183249;28;20042;-70
2023/01/15 07:25:39;;;;;;;0.10;0.10;;;8.30;99.90;;;;;;10181502;28;20383;-69
2023/01/15 07:30:29;;;;;;;0.20;0.20;;;8.40;99.90;;;;;;10161201;28;20052;-70
2023/01/15 07:35:20;;;;;;;0.15;0.15;;;8.50;99.90;;;;;;10168487;28;20024;-69
2023/01/15 07:40:11;;;;;;;0.30;0.20;;;8.50;99.90;;;;;;10182446;28;20028;-69
2023/01/15 07:50:20;;;;;;;0.15;0.13;;;8.40;99.90;;;;;;10173488;28;20097;-69
2023/01/15 07:55:12;;;;;;;0.52;0.30;;;8.60;99.90;;;;;;10174363;28;20028;-70
2023/01/15 08:00:05;;;;;;;0.40;0.20;;;8.80;99.90;;;;;;10175184;28;20493;-69
2023/01/15 08:04:55;;;;;;;0.75;0.30;;;8.80;99.90;;;;;;10166027;28;20069;-69
2023/01/15 08:09:46;;;;;;;0.10;0.10;;;8.80;99.90;;;;;;10181526;28;20077;-69
2023/01/15 08:19:46;;;;;;;0.32;0.22;;;8.80;99.90;;;;;;10180211;28;20536;-69
2023/01/15 08:24:37;;;;;;;0.65;0.15;;;8.70;99.90;;;;;;10160815;28;20046;-70
2023/01/15 08:29:28;;;;;;;0.25;0.17;;;8.70;99.90;;;;;;10154049;28;20024;-70
2023/01/15 08:34:18;;;;;;;0.30;0.10;;;8.60;99.90;;;;;;10179031;28;20055;-69
2023/01/15 08:39:10;;;;;;;0.32;0.10;;;8.50;99.90;;;;;;10179287;28;20032;-69
2023/01/15 08:44:01;;;;;;;0.70;0.30;;;8.40;99.90;;;;;;10166620;28;20036;-70
2023/01/15 08:48:52;;;;;;;0.28;0.25;;;8.50;99.90;;;;;;10178650;28;20045;-69
2023/01/15 08:53:42;;;;;;;0.95;0.50;;;8.50;99.90;;;;;;10172905;28;20084;-69
2023/01/15 08:58:33;;;;;;;0.70;0.40;;;8.50;99.90;;;;;;10167580;28;20077;-69
2023/01/15 09:03:24;;;;;;;0.40;0.30;;;8.50;99.90;;;;;;10176953;28;20031;-68
2023/01/15 09:08:14;;;;;;;0.38;0.17;;;8.40;99.90;;;;;;10167903;28;20032;-69
2023/01/15 09:13:05;;;;;;;0.55;0.20;;;8.20;99.90;;;;;;10194128;28;20167;-69
2023/01/15 09:17:56;;;;;;;0.10;0.10;;;8.10;99.90;;;;;;10166724;28;20028;-69
2023/01/15 09:22:47;;;;;;;0.60;0.30;;;8.10;99.90;;;;;;10169666;28;20283;-70
2023/01/15 09:27:38;;;;;;;0.30;0.30;;;8.20;99.90;;;;;;10186658;28;20092;-68
2023/01/15 09:32:29;;;;;;;0.22;0.22;;;8.10;99.90;;;;;;10184871;28;20093;-68
2023/01/15 09:37:19;;;;;;;0.98;0.28;;;8.10;99.90;;;;;;10190223;28;20278;-69
2023/01/15 09:42:40;;;;;;;0.20;0.20;;;8.10;99.90;;;;;;10183141;28;20032;-68
2023/01/15 09:47:38;;;;;;;0.30;0.20;;;8.10;99.90;;;;;;10172837;28;20703;-69
2023/01/15 09:52:47;;;;;;;0.10;0.10;;;8.10;99.90;;;;;;10162717;28;20214;-70
2023/01/15 09:57:39;;;;;;;0.80;0.30;;;8.10;99.90;;;;;;10174279;28;20048;-68
2023/01/15 10:03:03;;;;;;;0.20;0.20;;;8.20;99.90;;;;;;10186384;28;20048;-68
2023/01/15 10:07:56;;;;;;;0.40;0.32;;;8.10;99.90;;;;;;10152229;28;20484;-69
2023/01/15 10:12:52;;;;;;;0.30;0.22;;;8.00;99.90;;;;;;10189910;28;20012;-69
2023/01/15 10:17:49;;;;;;;0.08;0.08;;;7.80;99.90;;;;;;10184520;28;20031;-69
2023/01/15 10:23:07;;;;;;;0.20;0.20;;;7.70;99.90;;;;;;10184749;28;20040;-69
2023/01/15 10:28:09;;;;;;;1.20;0.13;;;7.10;99.90;;;;;;10191722;28;20028;-69
2023/01/15 10:33:09;;;;;;;0.20;0.10;;;6.60;99.90;;;;;;10177695;28;20041;-70
2023/01/15 10:38:23;;;;;;;0.80;0.32;;;6.30;99.90;;;;;;10178738;28;20044;-69
2023/01/15 10:43:17;;;;;;;0.57;0.57;;;6.30;99.90;;;;;;10202699;28;20028;-70
2023/01/15 10:48:26;;;;;;;2.22;0.30;;;6.30;99.90;;;;;;10189090;28;20356;-70
2023/01/15 10:53:23;;;;;;;0.98;0.28;;;6.50;99.90;;;;;;10178638;28;20051;-70
2023/01/15 10:58:26;;;;;;;0.13;0.10;;;6.70;99.90;;;;;;10177891;28;20040;-70
2023/01/15 11:03:23;;;;;;;1.33;0.40;;;6.90;99.90;;;;;;10172505;28;20044;-68
2023/01/15 11:08:24;;;;;;;0.68;0.40;;;7.00;99.90;;;;;;10173369;28;20142;-70
2023/01/15 11:23:48;;;;;;;1.47;0.40;;;7.10;99.90;;;;;;10192604;28;20086;-69
2023/01/15 11:28:41;;;;;;;0.85;0.20;;;7.30;99.90;;;;;;10197333;28;20054;-69
2023/01/15 11:33:36;;;;;;;2.38;0.47;;;7.50;99.90;;;;;;10186676;28;20184;-68
2023/01/15 11:38:41;;;;;;;0.82;0.50;;;7.50;99.90;;;;;;10193773;28;20032;-69
2023/01/15 11:53:59;;;;;;;1.88;0.32;;;7.50;99.90;;;;;;10188137;28;20042;-70
2023/01/15 11:58:57;;;;;;;0.60;0.45;;;7.60;99.90;;;;;;10186462;28;20496;-67
2023/01/15 12:03:48;;;;;;;1.48;0.50;;;7.50;99.90;;;;;;10171771;28;20112;-70
2023/01/15 12:08:42;;;;;;;1.25;0.43;;;7.60;99.90;;;;;;10197524;28;20016;-69
2023/01/15 12:13:51;;;;;;;0.60;0.40;;;7.70;99.90;;;;;;10197185;28;20101;-68
2023/01/15 12:19:07;;;;;;;1.02;0.68;;;7.70;99.90;;;;;;10194222;28;20016;-68
2023/01/15 12:24:19;;;;;;;1.30;0.70;;;7.80;99.90;;;;;;10184801;28;20040;-67
2023/01/15 12:29:15;;;;;;;0.60;0.38;;;7.70;99.90;;;;;;10177333;28;20243;-69
2023/01/15 12:34:12;;;;;;;1.10;0.47;;;7.90;99.90;;;;;;10112327;28;20053;-67
2023/01/15 12:39:13;;;;;;;0.88;0.50;;;8.20;99.90;;;;;;10128279;28;20036;-68
2023/01/15 12:49:30;;;;;;;2.35;0.50;;;8.80;99.90;;;;;;10120275;28;20498;-68
2023/01/15 12:54:32;;;;;;;2.33;0.85;;;8.80;99.90;;;;;;10127652;28;20051;-68
2023/01/15 12:59:31;;;;;;;1.77;0.52;;;8.60;99.90;;;;;;10123057;28;20016;-68
2023/01/15 13:04:24;;;;;;;1.30;0.95;;;8.70;99.90;;;;;;10121083;28;20078;-67
2023/01/15 13:09:37;;;;;;;1.42;0.65;;;8.80;99.90;;;;;;10118291;28;20498;-66
2023/01/15 13:14:29;;;;;;;2.10;0.70;;;8.80;99.90;;;;;;10118720;28;20499;-67
2023/01/15 13:19:27;;;;;;;1.67;0.63;;;8.70;99.90;;;;;;10138268;28;20120;-67
2023/01/15 13:24:31;;;;;;;3.25;0.70;;;8.70;99.90;;;;;;10133816;28;20303;-67
2023/01/15 13:29:52;;;;;;;1.80;1.23;;;8.70;99.90;;;;;;10129513;28;20020;-66
2023/01/15 13:35:10;;;;;;;0.82;0.52;;;8.80;99.90;;;;;;10145060;28;20052;-67
2023/01/15 13:40:33;;;;;;;2.47;0.43;;;8.90;99.90;;;;;;10139753;28;20085;-67
2023/01/15 13:45:40;;;;;;;3.85;0.50;;;9.10;99.90;;;;;;10147636;28;20236;-67
2023/01/15 13:50:39;;;;;;;1.95;0.60;;;9.10;99.90;;;;;;10133785;28;20055;-68
2023/01/15 13:55:40;;;;;;;3.80;0.60;;;9.10;99.90;;;;;;10133057;28;20040;-67
2023/01/15 14:00:37;;;;;;;1.35;0.50;;;9.20;99.90;;;;;;10119300;28;20020;-69
2023/01/15 14:05:32;;;;;;;0.65;0.65;;;9.00;99.90;;;;;;10138136;28;20107;-66
2023/01/15 14:10:24;;;;;;;1.00;0.47;;;9.00;99.90;;;;;;10136787;28;20063;-67
2023/01/15 14:15:39;;;;;;;1.25;0.60;;;9.00;99.90;;;;;;10137604;28;20044;-68
2023/01/15 14:20:52;;;;;;;0.70;0.57;;;9.10;99.90;;;;;;10127378;28;20086;-68
2023/01/15 14:26:00;;;;;;;2.20;0.80;;;9.10;99.90;;;;;;10125640;28;20032;-68
2023/01/15 14:31:07;;;;;;;1.20;0.93;;;9.10;99.90;;;;;;10150593;28;20055;-68
2023/01/15 14:36:09;;;;;;;1.65;0.50;;;9.20;99.90;;;;;;10170214;28;20036;-66
2023/01/15 14:41:04;;;;;;;1.02;0.50;;;9.20;99.90;;;;;;10158745;28;20350;-68
2023/01/15 14:45:55;;;;;;;0.88;0.50;;;9.20;99.90;;;;;;10165429;28;20530;-67
2023/01/15 14:50:48;;;;;;;0.65;0.45;;;9.00;99.90;;;;;;10163363;28;20016;-67
2023/01/15 14:55:50;;;;;;;2.38;0.55;;;8.80;99.90;;;;;;10174836;28;20032;-70
2023/01/15 15:00:44;;;;;;;0.63;0.40;;;8.80;99.90;;;;;;10163482;28;20062;-69
2023/01/15 15:05:35;;;;;;;1.85;0.50;;;8.90;99.90;;;;;;10163585;28;20119;-65
2023/01/15 15:10:34;;;;;;;2.13;0.60;;;8.80;99.90;;;;;;9243765;28;10000939;-66
2023/01/15 15:15:25;;;;;;;2.20;0.73;;;8.70;99.90;;;;;;10123293;28;20486;-65
2023/01/15 15:20:19;;;;;;;2.05;0.80;;;8.70;99.90;;;;;;10134767;28;20028;-65
2023/01/15 15:25:16;;;;;;;2.00;0.57;;;8.70;99.90;;;;;;10116096;28;20046;-70
2023/01/15 15:30:10;;;;;;;2.13;0.73;;;8.70;99.90;;;;;;10136153;28;20111;-69
2023/01/15 15:35:01;;;;;;;0.75;0.60;;;8.60;99.90;;;;;;10147683;28;20059;-70
2023/01/15 15:40:01;;;;;;;1.58;1.02;;;8.60;99.90;;;;;;10142957;28;20031;-70
2023/01/15 15:50:18;;;;;;;1.35;0.82;;;8.30;99.90;;;;;;10137505;28;20373;-68
2023/01/15 15:55:17;;;;;;;0.40;0.30;;;8.20;99.90;;;;;;10133365;28;20193;-70
2023/01/15 16:00:28;;;;;;;0.85;0.68;;;8.10;99.90;;;;;;10126461;28;20164;-69
2023/01/15 16:05:25;;;;;;;1.20;0.90;;;8.00;99.90;;;;;;10135334;28;20033;-70
2023/01/15 16:10:28;;;;;;;1.85;0.57;;;8.00;99.90;;;;;;10126994;28;20021;-69
2023/01/15 16:15:27;;;;;;;1.75;0.52;;;7.90;99.90;;;;;;10134835;28;20033;-69
2023/01/15 16:20:19;;;;;;;1.13;0.55;;;7.80;99.90;;;;;;10116080;28;20108;-70
2023/01/15 16:25:34;;;;;;;3.78;1.20;;;7.70;99.90;;;;;;10124984;28;20043;-69
2023/01/15 16:30:25;;;;;;;0.82;0.65;;;7.70;99.90;;;;;;10137901;28;20061;-68
2023/01/15 16:35:17;;;;;;;1.15;0.47;;;7.60;99.90;;;;;;10136755;28;20036;-69
2023/01/15 16:40:21;;;;;;;2.30;0.95;;;7.50;99.90;;;;;;10133504;28;20025;-68
2023/01/15 16:45:24;;;;;;;1.33;0.63;;;7.40;99.90;;;;;;10101241;28;20049;-68
2023/01/15 16:50:21;;;;;;;0.60;0.52;;;7.40;99.90;;;;;;10130579;28;20503;-69
2023/01/15 16:55:35;;;;;;;1.75;0.82;;;7.40;99.90;;;;;;10128251;28;20039;-68
2023/01/15 17:00:29;;;;;;;1.13;0.50;;;7.50;99.90;;;;;;10141349;28;20029;-69
2023/01/15 17:05:23;;;;;;;5.15;1.02;;;7.40;99.90;;;;;;10105304;28;20059;-69
2023/01/15 17:10:22;;;;;;;0.80;0.60;;;7.40;99.90;;;;;;10123786;28;20202;-69
2023/01/15 17:15:13;;;;;;;1.80;0.70;;;7.30;99.90;;;;;;10103048;28;20045;-66
2023/01/15 17:20:04;;;;;;;2.70;1.13;;;7.30;99.90;;;;;;10118746;28;20116;-68
2023/01/15 17:24:57;;;;;;;1.20;0.60;;;7.20;99.90;;;;;;10123416;28;20123;-68
2023/01/15 17:29:48;;;;;;;1.48;0.70;;;7.20;99.90;;;;;;10100918;28;20016;-68
2023/01/15 17:34:38;;;;;;;2.33;0.60;;;7.10;99.90;;;;;;10127849;28;20038;-70
2023/01/15 17:39:29;;;;;;;2.60;1.90;;;7.10;99.90;;;;;;10119522;28;20518;-68
2023/01/15 17:44:19;;;;;;;1.05;0.63;;;7.00;99.90;;;;;;10116121;28;20431;-69
2023/01/15 17:49:10;;;;;;;1.55;0.80;;;7.00;99.90;;;;;;10117926;28;20151;-68
2023/01/15 17:54:01;;;;;;;0.95;0.50;;;7.10;99.90;;;;;;10124448;28;20086;-69
2023/01/15 18:09:12;;;;;;;1.85;0.80;;;7.10;99.90;;;;;;10137780;28;20565;-70
2023/01/15 18:14:02;;;;;;;1.25;0.88;;;7.10;99.90;;;;;;10126489;28;20044;-69
2023/01/15 18:18:53;;;;;;;1.20;0.73;;;7.20;99.90;;;;;;10131862;28;20233;-68
2023/01/15 18:23:44;;;;;;;1.33;0.52;;;7.20;99.90;;;;;;10132226;28;20072;-67
2023/01/15 18:28:37;;;;;;;1.58;1.00;;;7.30;99.90;;;;;;10117936;28;20092;-70
2023/01/15 18:33:28;;;;;;;1.52;0.73;;;7.30;99.90;;;;;;10124105;28;20049;-69
2023/01/15 18:38:18;;;;;;;4.68;0.73;;;7.30;99.90;;;;;;10101024;28;20386;-67
2023/01/15 18:48:18;;;;;;;2.80;0.57;;;7.40;99.90;;;;;;10138364;28;20052;-69
2023/01/15 18:53:10;;;;;;;1.23;0.57;;;7.40;99.90;;;;;;10141923;28;20505;-68
2023/01/15 18:58:01;;;;;;;0.95;0.90;;;7.30;99.90;;;;;;10134724;28;20061;-70
2023/01/15 19:02:52;;;;;;;3.50;0.75;;;7.40;99.90;;;;;;10132533;28;20522;-72
2023/01/15 19:07:44;;;;;;;0.80;0.60;;;7.30;99.90;;;;;;10118430;28;20021;-70
2023/01/15 19:12:35;;;;;;;1.52;0.80;;;7.20;99.90;;;;;;10113183;28;20020;-71
2023/01/15 19:27:48;;;;;;;2.13;0.80;;;7.20;99.90;;;;;;10133664;28;20063;-72
2023/01/15 19:32:38;;;;;;;0.90;0.50;;;7.10;99.90;;;;;;10128514;28;20059;-67
2023/01/15 19:37:30;;;;;;;1.75;1.30;;;7.10;99.90;;;;;;10126848;28;20485;-68
2023/01/15 19:52:53;;;;;;;3.17;0.85;;;7.00;99.90;;;;;;10125688;28;20112;-69
2023/01/15 19:57:46;;;;;;;2.15;0.82;;;7.00;99.90;;;;;;10124799;28;20025;-70
2023/01/15 20:02:37;;;;;;;1.38;1.05;;;7.00;99.90;;;;;;10127185;28;20345;-70
2023/01/15 20:07:28;;;;;;;1.40;0.68;;;6.90;99.90;;;;;;10099301;28;20709;-69
2023/01/15 20:17:29;;;;;;;1.63;1.52;;;6.70;99.90;;;;;;10127672;28;20122;-67
2023/01/15 20:22:19;;;;;;;0.77;0.52;;;6.70;99.90;;;;;;10118425;28;20029;-68
2023/01/15 20:27:12;;;;;;;0.77;0.55;;;6.70;99.90;;;;;;10132614;28;20041;-68
2023/01/15 20:32:02;;;;;;;4.70;0.40;;;6.70;99.90;;;;;;10137304;28;20057;-66
2023/01/15 20:36:53;;;;;;;3.45;0.70;;;6.60;99.90;;;;;;10133719;28;20020;-70
2023/01/15 20:46:53;;;;;;;1.88;0.55;;;6.70;99.90;;;;;;10122760;28;20135;-68
2023/01/15 20:51:45;;;;;;;2.53;0.57;;;6.60;99.90;;;;;;10135005;28;20627;-69
2023/01/15 20:56:36;;;;;;;1.05;0.50;;;6.60;99.90;;;;;;10132210;28;20104;-71
2023/01/15 21:01:28;;;;;;;1.75;0.70;;;6.50;99.90;;;;;;10130697;28;20143;-69
2023/01/15 21:06:18;;;;;;;2.53;0.70;;;6.50;99.90;;;;;;10133423;28;20044;-67
2023/01/15 21:11:09;;;;;;;4.38;0.75;;;6.50;99.90;;;;;;10108673;28;20440;-67
2023/01/15 21:16:03;;;;;;;3.80;0.77;;;6.50;99.90;;;;;;10131866;28;20264;-68
2023/01/15 21:20:55;;;;;;;3.67;0.77;;;6.60;99.90;;;;;;10122105;28;20119;-69
2023/01/15 21:25:45;;;;;;;2.00;0.70;;;6.50;99.90;;;;;;10124819;28;20033;-69
2023/01/15 21:30:38;;;;;;;0.50;0.50;;;6.50;99.90;;;;;;10121571;28;20056;-68
2023/01/15 21:35:28;;;;;;;1.60;0.55;;;6.50;99.90;;;;;;10127442;28;20012;-69
2023/01/15 21:40:19;;;;;;;1.67;0.68;;;6.60;99.90;;;;;;10135133;28;20404;-69
2023/01/15 21:45:10;;;;;;;1.77;1.00;;;6.50;99.90;;;;;;10116038;28;20039;-66
2023/01/15 21:50:01;;;;;;;1.75;0.60;;;6.50;99.90;;;;;;10113681;28;20032;-67
2023/01/15 21:54:52;;;;;;;2.13;0.55;;;6.50;99.90;;;;;;10128491;28;20390;-68
2023/01/15 21:59:43;;;;;;;3.55;0.70;;;6.50;99.90;;;;;;10116793;28;20021;-67
2023/01/15 22:04:34;;;;;;;0.65;0.60;;;6.40;99.90;;;;;;10119373;28;20044;-68
2023/01/15 22:09:25;;;;;;;1.98;0.80;;;6.40;99.90;;;;;;10119388;28;20091;-68
2023/01/15 22:14:18;;;;;;;1.88;0.68;;;6.30;99.90;;;;;;10109326;28;20120;-68
2023/01/15 22:19:10;;;;;;;0.95;0.52;;;6.30;99.90;;;;;;10112868;28;20029;-67
2023/01/15 22:24:02;;;;;;;1.33;0.63;;;6.30;99.90;;;;;;10126032;28;20037;-69
2023/01/15 22:28:53;;;;;;;0.57;0.50;;;6.40;99.90;;;;;;10129621;28;20721;-67
2023/01/15 22:33:44;;;;;;;0.93;0.68;;;6.30;99.90;;;;;;10107445;28;20056;-68
2023/01/15 22:38:35;;;;;;;1.33;0.90;;;6.40;99.90;;;;;;10131283;28;20024;-68
2023/01/15 22:43:29;;;;;;;1.67;0.80;;;6.50;99.90;;;;;;10129079;28;20040;-68
2023/01/15 22:48:20;;;;;;;2.78;1.10;;;6.60;99.90;;;;;;10122841;28;20047;-68
2023/01/15 22:53:10;;;;;;;0.70;0.70;;;6.60;99.90;;;;;;10123911;28;20509;-67
2023/01/15 22:58:01;;;;;;;1.80;0.55;;;6.50;99.90;;;;;;10129825;28;20054;-68
2023/01/15 23:02:54;;;;;;;0.90;0.50;;;6.50;99.90;;;;;;10132041;28;20037;-67
2023/01/15 23:07:45;;;;;;;2.38;0.50;;;6.60;99.90;;;;;;10125700;28;20029;-67
2023/01/15 23:12:38;;;;;;;1.52;0.47;;;6.50;99.90;;;;;;10129784;28;20096;-67
2023/01/15 23:17:28;;;;;;;2.58;0.75;;;6.60;99.90;;;;;;10154114;28;20044;-67
2023/01/15 23:22:19;;;;;;;1.50;0.70;;;6.70;99.90;;;;;;10123696;28;20029;-68
2023/01/15 23:27:09;;;;;;;0.77;0.30;;;6.60;99.90;;;;;;10133381;28;20655;-66
2023/01/15 23:32:00;;;;;;;4.10;0.80;;;6.60;99.90;;;;;;10129006;28;20131;-67
2023/01/15 23:36:51;;;;;;;0.77;0.63;;;6.60;99.90;;;;;;10117113;28;20124;-67
2023/01/15 23:46:51;;;;;;;1.75;0.45;;;6.50;99.90;;;;;;10121178;28;20087;-68
2023/01/15 23:51:41;;;;;;;1.30;0.68;;;6.50;99.90;;;;;;10119297;28;20079;-66
2023/01/15 23:56:32;;;;;;;1.02;0.35;;;6.60;99.90;;;;;;10125418;28;20035;-67
